Time;durP1;ratioP1;P1;durP2;ratioP2;P2;SDS_P1;SDS_P2;PMS_P1;PMS_P2;Temp;Humidity;BMP_temperature;BMP_pressure;BME280_temperature;BME280_humidity;BME280_pressure;Samples;Min_cycle;Max_cycle;Signal;HPM_P1;HPM_P2
2023/04/05 14:09:25;;;;;;;7.40;5.60;;;;;;;18.60;49.13;99367.65;103228;1286;604425;-71
2023/04/05 14:12:01;;;;;;;9.90;5.60;;;;;;;18.92;48.57;99360.82;104722;1270;126096;-71
2023/04/05 14:14:30;;;;;;;12.10;4.90;;;;;;;18.87;48.55;99358.04;104714;1266;59243;-71
2023/04/05 14:17:06;;;;;;;8.40;5.40;;;;;;;18.82;48.46;99353.91;105086;1264;65176;-70
2023/04/05 14:19:38;;;;;;;9.80;5.80;;;;;;;18.75;48.48;99354.91;105771;1254;59824;-70
2023/04/05 14:22:06;;;;;;;9.70;5.80;;;;;;;18.67;48.53;99355.15;105711;1259;64603;-74
2023/04/05 14:24:37;;;;;;;8.00;5.40;;;;;;;18.60;48.62;99353.40;105733;1253;59227;-70
2023/04/05 14:27:08;;;;;;;7.70;5.80;;;;;;;18.54;48.70;99351.65;105737;1256;59301;-72
2023/04/05 14:29:36;;;;;;;8.60;5.60;;;;;;;18.48;48.75;99352.80;105589;1257;65124;-72
2023/04/05 14:32:04;;;;;;;8.90;5.20;;;;;;;18.42;48.87;99353.75;105923;1253;60050;-74
2023/04/05 14:34:33;;;;;;;7.50;5.40;;;;;;;18.35;49.12;99352.89;105877;1254;65358;-74
2023/04/05 14:37:02;;;;;;;10.80;5.60;;;;;;;18.27;49.18;99352.25;105844;1254;59670;-74
2023/04/05 14:39:32;;;;;;;12.60;5.80;;;;;;;18.22;49.51;99350.31;105688;1257;59602;-74
2023/04/05 14:42:00;;;;;;;10.70;5.90;;;;;;;18.17;49.41;99344.98;105720;1260;66004;-78
2023/04/05 14:44:30;;;;;;;11.90;6.20;;;;;;;18.13;49.85;99345.39;105828;1254;60156;-74
2023/04/05 14:46:59;;;;;;;14.80;6.10;;;;;;;18.08;49.94;99345.13;105630;1253;65292;-73
2023/04/05 14:49:27;;;;;;;11.20;6.50;;;;;;;18.01;49.60;99345.31;105683;1253;59667;-77
2023/04/05 14:51:56;;;;;;;11.40;7.80;;;;;;;17.94;49.54;99337.29;105309;1254;59512;-72
2023/04/05 14:54:25;;;;;;;10.50;7.40;;;;;;;17.86;49.60;99324.61;105938;1254;65881;-73
2023/04/05 14:56:57;;;;;;;10.70;6.80;;;;;;;17.79;49.83;99328.67;105918;1253;59742;-73
2023/04/05 14:59:28;;;;;;;15.60;8.00;;;;;;;17.74;49.93;99333.39;105740;1254;65491;-72
2023/04/05 15:02:00;;;;;;;9.50;6.90;;;;;;;17.71;49.94;99334.98;105635;1255;59823;-73
2023/04/05 15:04:29;;;;;;;13.30;7.30;;;;;;;17.68;50.03;99334.15;105649;1254;59708;-73
2023/04/05 15:06:59;;;;;;;10.50;7.10;;;;;;;17.65;50.11;99333.73;105642;1257;64454;-73
2023/04/05 15:09:29;;;;;;;15.10;7.90;;;;;;;17.61;50.22;99335.36;105682;1253;59657;-74
2023/04/05 15:12:01;;;;;;;10.20;7.20;;;;;;;17.60;50.12;99331.27;105917;1254;64557;-70
2023/04/05 15:14:30;;;;;;;11.50;7.40;;;;;;;17.57;50.21;99333.02;105605;1257;59649;-74
2023/04/05 15:17:01;;;;;;;12.30;7.80;;;;;;;17.55;50.32;99335.09;105868;1254;59619;-74
2023/04/05 15:19:30;;;;;;;10.90;7.80;;;;;;;17.52;50.26;99335.48;105720;1254;65897;-74
2023/04/05 15:21:58;;;;;;;11.70;7.00;;;;;;;17.50;50.28;99333.83;105749;1253;59761;-74
2023/04/05 15:24:28;;;;;;;13.20;7.60;;;;;;;17.47;50.38;99332.72;105518;1259;64089;-73
2023/04/05 15:27:03;;;;;;;13.00;7.70;;;;;;;17.44;50.52;99333.42;105612;1254;59698;-76
2023/04/05 15:29:40;;;;;;;8.70;7.20;;;;;;;17.42;50.50;99338.84;105623;1256;59639;-73
2023/04/05 15:32:09;;;;;;;10.40;7.60;;;;;;;17.39;50.52;99332.61;105714;1254;66183;-75
2023/04/05 15:34:37;;;;;;;9.10;7.50;;;;;;;17.37;50.41;99336.27;105648;1259;60133;-74
2023/04/05 15:37:09;;;;;;;14.70;7.70;;;;;;;17.34;50.48;99339.16;105667;1253;65556;-73
2023/04/05 15:39:38;;;;;;;11.20;7.70;;;;;;;17.30;50.65;99337.49;105640;1258;59534;-73
2023/04/05 15:42:06;;;;;;;10.50;7.60;;;;;;;17.28;50.70;99339.36;105700;1255;59544;-73
2023/04/05 15:44:37;;;;;;;14.00;8.00;;;;;;;17.25;50.89;99341.70;105528;1255;65956;-74
2023/04/05 15:47:09;;;;;;;12.00;7.70;;;;;;;17.21;50.79;99337.03;105673;1255;59608;-74
2023/04/05 15:49:42;;;;;;;10.70;7.70;;;;;;;17.17;50.79;99332.67;105485;1260;64734;-72
2023/04/05 15:52:11;;;;;;;11.20;7.10;;;;;;;17.15;50.95;99331.90;105431;1254;59645;-74
2023/04/05 15:54:43;;;;;;;11.70;7.50;;;;;;;17.14;51.02;99332.73;105609;1253;60345;-73
2023/04/05 15:57:11;;;;;;;13.10;8.00;;;;;;;17.10;51.09;99329.45;105719;1256;65838;-73
2023/04/05 15:59:40;;;;;;;12.50;7.30;;;;;;;17.05;51.02;99328.07;105767;1254;59949;-73
2023/04/05 16:02:09;;;;;;;11.60;7.00;;;;;;;17.01;51.23;99326.52;105652;1257;64545;-73
2023/04/05 16:04:39;;;;;;;11.60;7.00;;;;;;;16.97;51.39;99323.14;105620;1254;59696;-73
2023/04/05 16:07:08;;;;;;;13.20;6.90;;;;;;;16.93;51.52;99324.17;105650;1253;59757;-72
2023/04/05 16:09:38;;;;;;;11.00;7.40;;;;;;;16.90;51.56;99321.48;105940;1253;65665;-73
2023/04/05 16:12:06;;;;;;;11.60;7.20;;;;;;;16.86;51.53;99322.04;105628;1256;59988;-74
2023/04/05 16:14:38;;;;;;;10.00;6.70;;;;;;;16.84;51.56;99323.41;105501;1260;64518;-74
2023/04/05 16:17:09;;;;;;;12.60;7.50;;;;;;;16.82;51.74;99323.52;105589;1259;59648;-75
2023/04/05 16:19:38;;;;;;;13.20;7.10;;;;;;;16.79;51.79;99319.38;105393;1254;59743;-74
2023/04/05 16:22:08;;;;;;;10.90;7.20;;;;;;;16.78;51.77;99315.86;105966;1254;66073;-74
2023/04/05 16:36:59;;;;;;;10.80;7.80;;;;;;;16.97;51.71;99304.05;103416;1285;608129;-73
2023/04/05 16:39:26;;;;;;;12.50;7.50;;;;;;;17.15;51.32;99302.98;105122;1266;101904;-74
2023/04/05 16:41:53;;;;;;;15.10;7.20;;;;;;;17.11;51.30;99304.38;105351;1255;59371;-76
2023/04/05 16:44:20;;;;;;;11.90;7.70;;;;;;;17.08;51.32;99305.13;105573;1263;65468;-72
2023/04/05 16:46:52;;;;;;;11.90;7.90;;;;;;;17.02;51.47;99306.30;105247;1264;60177;-74
2023/04/05 16:49:20;;;;;;;15.50;7.20;;;;;;;16.98;51.50;99305.30;105550;1261;65353;-74
2023/04/05 16:51:47;;;;;;;12.60;7.40;;;;;;;16.95;51.59;99302.85;105494;1260;59202;-73
2023/04/05 16:54:15;;;;;;;11.90;7.80;;;;;;;16.92;51.65;99300.90;105622;1259;59281;-73
2023/04/05 16:56:43;;;;;;;12.40;8.10;;;;;;;16.88;51.81;99303.02;105851;1260;64921;-74
2023/04/05 16:59:10;;;;;;;11.40;7.90;;;;;;;16.83;51.88;99303.50;105360;1263;59896;-77
2023/04/05 17:01:37;;;;;;;13.10;7.70;;;;;;;16.79;51.90;99305.42;105745;1261;64507;-74
2023/04/05 17:04:06;;;;;;;11.20;7.60;;;;;;;16.75;52.04;99305.74;105446;1257;60380;-74
2023/04/05 17:06:33;;;;;;;14.90;7.70;;;;;;;16.71;52.17;99306.06;105382;1264;59586;-74
2023/04/05 17:14:58;;;;;;;13.30;7.90;;;;;;;16.59;52.44;99310.75;102650;1303;600097;-74
2023/04/05 17:17:27;;;;;;;16.30;7.40;;;;;;;16.53;52.46;99315.39;105288;1270;60359;-71
2023/04/05 17:19:55;;;;;;;10.50;7.60;;;;;;;16.52;52.44;99312.42;105523;1262;59117;-73
2023/04/05 17:22:23;;;;;;;14.10;7.30;;;;;;;16.51;52.53;99310.36;105555;1262;65105;-73
2023/04/05 17:24:51;;;;;;;16.20;7.50;;;;;;;16.50;52.41;99311.23;105382;1264;60075;-73
2023/04/05 17:27:22;;;;;;;9.80;7.70;;;;;;;16.48;52.40;99308.34;105701;1257;65620;-75
2023/04/05 17:29:52;;;;;;;12.20;7.00;;;;;;;16.46;52.39;99308.31;105486;1256;59342;-73
2023/04/05 17:32:21;;;;;;;9.10;6.40;;;;;;;16.45;52.36;99308.79;105817;1260;59408;-73
2023/04/05 17:34:49;;;;;;;11.60;7.10;;;;;;;16.43;52.43;99307.79;105467;1263;64848;-73
2023/04/05 17:37:19;;;;;;;10.80;7.10;;;;;;;16.40;52.47;99310.31;105470;1260;59961;-74
2023/04/05 17:39:48;;;;;;;12.20;6.80;;;;;;;16.40;52.33;99308.31;105599;1256;64573;-73
2023/04/05 17:42:17;;;;;;;11.80;6.90;;;;;;;16.42;52.23;99307.05;105610;1258;59650;-71
2023/04/05 17:44:45;;;;;;;12.70;7.30;;;;;;;16.41;52.35;99309.08;105957;1260;60216;-73
2023/04/05 17:47:14;;;;;;;15.70;7.10;;;;;;;16.37;52.33;99308.11;105661;1258;64969;-75
2023/04/05 17:49:42;;;;;;;11.80;6.90;;;;;;;16.33;52.35;99307.05;105346;1260;59975;-74
2023/04/05 17:52:13;;;;;;;11.00;6.80;;;;;;;16.25;52.56;99304.97;105327;1260;65766;-74
2023/04/05 17:54:42;;;;;;;11.60;7.10;;;;;;;16.22;52.51;99305.04;105767;1257;59625;-74
2023/04/05 17:57:13;;;;;;;12.30;7.20;;;;;;;16.21;52.56;99305.50;105814;1252;59650;-75
2023/04/05 17:59:43;;;;;;;11.00;7.80;;;;;;;16.19;52.60;99305.20;106101;1257;64975;-73
2023/04/05 18:02:12;;;;;;;12.30;7.20;;;;;;;16.18;52.61;99301.83;105664;1256;59525;-74
2023/04/05 18:04:41;;;;;;;12.20;7.20;;;;;;;16.19;52.73;99296.87;105884;1258;65572;-74
2023/04/05 18:07:09;;;;;;;12.10;7.10;;;;;;;16.17;52.56;99294.03;106091;1257;59734;-75
2023/04/05 18:09:41;;;;;;;11.30;7.60;;;;;;;16.17;52.57;99294.73;105701;1255;59548;-74
2023/04/05 18:12:09;;;;;;;12.40;6.80;;;;;;;16.19;52.64;99292.05;106211;1256;65532;-73
2023/04/05 18:14:37;;;;;;;10.20;6.90;;;;;;;16.19;52.51;99295.93;106071;1256;59867;-74
2023/04/05 18:17:06;;;;;;;10.70;7.10;;;;;;;16.18;52.58;99297.48;106011;1254;65492;-72
2023/04/05 18:19:35;;;;;;;10.10;6.90;;;;;;;16.17;52.63;99293.90;105607;1254;59583;-71
2023/04/05 18:22:05;;;;;;;13.80;7.20;;;;;;;16.16;52.53;99297.70;106477;1254;59653;-71
2023/04/05 18:24:33;;;;;;;14.50;7.40;;;;;;;16.14;52.73;99290.92;105655;1254;66050;-73
2023/04/05 18:27:02;;;;;;;13.80;7.10;;;;;;;16.13;52.78;99294.43;105962;1253;59753;-72
2023/04/05 18:29:37;;;;;;;15.80;7.70;;;;;;;16.12;52.74;99304.33;106478;1254;65580;-73
2023/04/05 18:32:06;;;;;;;11.60;7.20;;;;;;;16.11;52.84;99309.41;105799;1257;59615;-73
2023/04/05 18:34:35;;;;;;;12.00;7.40;;;;;;;16.09;52.84;99305.30;106075;1251;59853;-72
2023/04/05 18:37:06;;;;;;;11.70;7.00;;;;;;;16.08;52.86;99306.52;105668;1257;66054;-73
2023/04/05 18:39:36;;;;;;;10.80;7.10;;;;;;;16.06;52.90;99313.38;105938;1257;60024;-72
2023/04/05 18:42:04;;;;;;;11.50;7.30;;;;;;;16.03;52.93;99310.45;105763;1254;64992;-71
2023/04/05 18:52:09;;;;;;;12.60;7.20;;;;;;;15.93;53.26;99320.56;102574;1294;601798;-73
2023/04/05 18:54:42;;;;;;;14.20;7.60;;;;;;;15.87;53.35;99319.25;104485;1273;59346;-74
2023/04/05 18:57:11;;;;;;;16.00;8.00;;;;;;;15.84;53.41;99318.27;104979;1265;61081;-73
2023/04/05 18:59:39;;;;;;;15.00;7.60;;;;;;;15.80;53.46;99323.55;104948;1269;65138;-73
2023/04/05 19:02:07;;;;;;;11.10;7.80;;;;;;;15.74;53.69;99324.94;104859;1267;59707;-73
2023/04/05 19:04:36;;;;;;;9.70;7.90;;;;;;;15.68;54.00;99331.52;105136;1261;164373;-74
2023/04/05 19:07:04;;;;;;;11.60;7.40;;;;;;;15.62;54.26;99337.55;105570;1257;59294;-73
2023/04/05 19:09:33;;;;;;;13.10;7.90;;;;;;;15.54;54.46;99341.48;105231;1257;59333;-73
2023/04/05 19:12:02;;;;;;;13.30;8.20;;;;;;;15.47;54.77;99349.85;105387;1258;65302;-72
2023/04/05 19:14:30;;;;;;;13.60;8.40;;;;;;;15.43;55.12;99352.80;105481;1257;59832;-74
2023/04/05 19:24:42;;;;;;;12.50;9.60;;;;;;;15.27;56.71;99365.52;102560;1294;600253;-74
2023/04/05 19:27:15;;;;;;;13.70;9.40;;;;;;;15.21;57.29;99367.13;104720;1271;59166;-73
2023/04/05 19:29:44;;;;;;;12.70;9.60;;;;;;;15.14;57.79;99366.27;104756;1266;59930;-73
2023/04/05 19:32:12;;;;;;;14.60;10.90;;;;;;;15.07;58.24;99361.99;104765;1269;65156;-74
2023/04/05 19:34:41;;;;;;;15.00;9.40;;;;;;;15.00;58.79;99361.87;104806;1271;60836;-74
2023/04/05 19:37:09;;;;;;;15.10;10.00;;;;;;;14.93;59.21;99360.55;104452;1266;173830;-73
2023/04/05 19:39:38;;;;;;;18.50;10.10;;;;;;;14.88;59.77;99365.92;104750;1270;59324;-74
2023/04/05 19:42:06;;;;;;;16.50;9.90;;;;;;;14.83;60.34;99363.27;104918;1266;59250;-73
2023/04/05 19:44:48;;;;;;;15.20;8.90;;;;;;;14.77;60.80;99361.09;104994;1268;65326;-74
2023/04/05 19:47:24;;;;;;;12.90;7.90;;;;;;;14.73;61.26;99358.23;104706;1269;60097;-73
2023/04/05 19:49:55;;;;;;;11.50;8.30;;;;;;;14.70;61.66;99352.76;104762;1266;65323;-72
2023/04/05 19:52:45;;;;;;;14.90;7.80;;;;;;;14.68;61.94;99358.95;104914;1266;59725;-73
2023/04/05 19:55:30;;;;;;;14.10;9.20;;;;;;;14.65;62.18;99357.02;104844;1272;59757;-74
2023/04/05 19:58:00;;;;;;;12.60;7.70;;;;;;;14.63;62.36;99353.73;105142;1259;66112;-73
2023/04/05 20:00:36;;;;;;;14.60;7.60;;;;;;;14.60;62.63;99347.81;105209;1260;59553;-74
2023/04/05 20:03:30;;;;;;;13.70;7.90;;;;;;;14.55;62.75;99341.45;105208;1259;65377;-74
2023/04/05 20:06:06;;;;;;;15.00;7.50;;;;;;;14.50;63.12;99342.21;105174;1263;59662;-73
2023/04/05 20:08:40;;;;;;;13.90;8.00;;;;;;;14.45;63.18;99339.17;105243;1265;59579;-73
2023/04/05 20:11:12;;;;;;;12.40;7.70;;;;;;;14.41;63.21;99336.90;105430;1259;65007;-72
2023/04/05 20:13:42;;;;;;;13.90;7.20;;;;;;;14.37;63.41;99332.35;107620;1259;60001;-73
2023/04/05 20:16:11;;;;;;;16.60;7.40;;;;;;;14.34;63.36;99332.27;105572;1265;64501;-73
2023/04/05 20:18:44;;;;;;;13.10;7.20;;;;;;;14.31;63.48;99331.38;105351;1264;59674;-74
2023/04/05 20:21:13;;;;;;;14.30;7.40;;;;;;;14.29;63.57;99330.40;105292;1262;59611;-72
2023/04/05 20:23:42;;;;;;;13.90;7.60;;;;;;;14.26;63.71;99333.55;105242;1262;65644;-72
2023/04/05 20:26:11;;;;;;;13.70;7.50;;;;;;;14.23;63.87;99328.05;106652;1263;59668;-72
2023/04/05 20:28:40;;;;;;;13.60;7.60;;;;;;;14.20;64.01;99324.16;105148;1264;65309;-73
2023/04/05 20:31:15;;;;;;;13.10;7.30;;;;;;;14.19;64.13;99323.52;104988;1260;59622;-72
2023/04/05 20:33:46;;;;;;;12.20;7.00;;;;;;;14.19;64.25;99323.23;105703;1258;59633;-72
2023/04/05 20:36:16;;;;;;;15.80;7.40;;;;;;;14.15;64.36;99321.45;105477;1257;74457;-72
2023/04/05 20:38:47;;;;;;;14.70;7.50;;;;;;;14.16;64.41;99324.05;105357;1259;59731;-74
2023/04/05 20:41:16;;;;;;;13.70;8.50;;;;;;;14.17;64.53;99321.23;105732;1260;64548;-73
2023/04/05 20:43:45;;;;;;;15.50;8.00;;;;;;;14.20;64.46;99318.15;105223;1264;59569;-73
2023/04/05 20:46:15;;;;;;;15.40;9.20;;;;;;;14.18;64.48;99316.87;105700;1256;59696;-73
2023/04/05 20:48:44;;;;;;;14.10;9.40;;;;;;;14.18;64.55;99318.86;105534;1259;65665;-73
2023/04/05 20:51:17;;;;;;;15.40;9.80;;;;;;;14.16;64.72;99317.11;105486;1269;59634;-73
2023/04/05 20:53:45;;;;;;;14.50;10.30;;;;;;;14.14;64.67;99317.48;105339;1261;65637;-73
2023/04/05 20:56:14;;;;;;;15.70;10.60;;;;;;;14.13;64.62;99315.83;105406;1256;59565;-73
2023/04/05 20:58:43;;;;;;;14.30;9.70;;;;;;;14.12;64.62;99316.04;105366;1256;59628;-74
2023/04/05 21:01:11;;;;;;;13.40;9.80;;;;;;;14.09;64.68;99313.82;105813;1262;65858;-73
2023/04/05 21:03:42;;;;;;;14.20;9.70;;;;;;;14.08;64.60;99314.88;105760;1256;59999;-73
2023/04/05 21:06:11;;;;;;;15.60;9.20;;;;;;;14.06;64.62;99311.73;105488;1262;63413;-73
2023/04/05 21:08:42;;;;;;;12.20;9.00;;;;;;;14.05;64.57;99305.63;105275;1257;59861;-75
2023/04/05 21:11:10;;;;;;;13.00;8.30;;;;;;;14.06;64.56;99304.46;105248;1256;59691;-72
2023/04/05 21:13:40;;;;;;;15.80;9.10;;;;;;;14.08;64.58;99306.55;105251;1262;65889;-74
2023/04/05 21:16:09;;;;;;;14.40;8.40;;;;;;;14.10;64.55;99310.94;105074;1263;60831;-74
2023/04/05 21:18:40;;;;;;;15.70;8.40;;;;;;;14.11;64.50;99309.87;105472;1260;65385;-74
2023/04/05 21:21:08;;;;;;;13.80;8.10;;;;;;;14.13;64.47;99308.96;105214;1257;59604;-72
2023/04/05 21:23:37;;;;;;;12.20;7.40;;;;;;;14.14;64.30;99308.48;105555;1256;59696;-73
2023/04/05 21:26:06;;;;;;;16.60;6.80;;;;;;;14.15;64.23;99315.00;105670;1259;66119;-74
2023/04/05 21:28:35;;;;;;;12.60;6.90;;;;;;;14.15;64.15;99313.17;105257;1256;60413;-74
2023/04/05 21:31:04;;;;;;;10.90;5.90;;;;;;;14.16;63.99;99317.27;105247;1256;65428;-72
2023/04/05 21:33:33;;;;;;;10.80;4.30;;;;;;;14.17;63.71;99318.77;105242;1263;59641;-72
2023/04/05 21:36:01;;;;;;;9.20;4.70;;;;;;;14.18;63.54;99318.96;105428;1256;59836;-74
2023/04/05 21:38:29;;;;;;;12.60;4.80;;;;;;;14.20;63.42;99322.36;105373;1258;65871;-73
2023/04/05 21:40:58;;;;;;;11.90;4.50;;;;;;;14.20;63.15;99319.70;105446;1262;59909;-73
2023/04/05 21:43:34;;;;;;;10.00;4.20;;;;;;;14.22;63.05;99325.67;105258;1257;64805;-72
2023/04/05 21:46:02;;;;;;;9.50;4.80;;;;;;;14.23;62.95;99326.42;105568;1261;59637;-73
2023/04/05 21:48:30;;;;;;;12.00;5.00;;;;;;;14.22;62.94;99326.86;105560;1260;60338;-73
2023/04/05 21:50:59;;;;;;;10.40;5.00;;;;;;;14.21;62.80;99330.15;106896;1256;65960;-72
2023/04/05 21:53:28;;;;;;;11.80;5.30;;;;;;;14.22;62.87;99328.16;105392;1261;59695;-73
2023/04/05 21:55:56;;;;;;;13.60;5.90;;;;;;;14.22;62.85;99329.52;105204;1257;65763;-72
2023/04/05 21:58:28;;;;;;;13.00;5.80;;;;;;;14.23;62.76;99331.94;105427;1259;59643;-72
2023/04/05 22:00:58;;;;;;;17.80;6.30;;;;;;;14.23;62.67;99333.48;105446;1256;60235;-72
2023/04/05 22:03:28;;;;;;;11.40;6.10;;;;;;;14.22;62.54;99331.14;105380;1260;66095;-73
2023/04/05 22:05:56;;;;;;;10.80;5.80;;;;;;;14.19;62.57;99330.98;105433;1259;59947;-73
2023/04/05 22:08:25;;;;;;;13.30;6.60;;;;;;;14.17;62.63;99332.44;105455;1256;65613;-73
2023/04/05 22:10:54;;;;;;;12.10;5.70;;;;;;;14.14;62.57;99333.95;105458;1260;59580;-73
2023/04/05 22:13:22;;;;;;;11.10;5.30;;;;;;;14.12;62.72;99333.20;105609;1257;59731;-74
2023/04/05 22:15:51;;;;;;;10.40;5.30;;;;;;;14.09;62.74;99333.30;105630;1260;65745;-74
2023/04/05 22:18:19;;;;;;;9.10;6.20;;;;;;;14.08;62.85;99331.14;105379;1258;59954;-73
2023/04/05 22:20:48;;;;;;;10.60;5.60;;;;;;;14.04;63.04;99331.88;105378;1257;65568;-73
2023/04/05 22:23:16;;;;;;;9.60;5.50;;;;;;;14.02;63.05;99333.35;105328;1256;59712;-73
2023/04/05 22:25:45;;;;;;;11.20;5.70;;;;;;;14.01;63.26;99333.89;105389;1258;59647;-73
2023/04/05 22:28:14;;;;;;;8.80;5.40;;;;;;;14.00;63.29;99332.17;105221;1262;66064;-73
2023/04/05 22:30:42;;;;;;;9.00;5.50;;;;;;;14.00;63.28;99332.04;105472;1258;60223;-72
2023/04/05 22:33:11;;;;;;;8.80;5.20;;;;;;;14.00;63.29;99331.67;105147;1259;65397;-73
2023/04/05 22:35:40;;;;;;;13.10;5.50;;;;;;;14.01;63.33;99334.20;105813;1264;59549;-67
2023/04/05 22:38:12;;;;;;;8.70;5.70;;;;;;;14.00;63.56;99333.98;106160;1259;59585;-70
2023/04/05 22:40:43;;;;;;;8.40;5.70;;;;;;;13.98;63.60;99334.50;106152;1259;66132;-74
2023/04/05 22:43:11;;;;;;;13.90;6.70;;;;;;;13.97;63.46;99336.90;105625;1254;61294;-73
2023/04/05 22:45:40;;;;;;;9.90;6.10;;;;;;;13.97;63.54;99335.86;105554;1259;65556;-74
2023/04/05 22:48:09;;;;;;;16.60;7.30;;;;;;;13.97;63.46;99335.01;105892;1256;59659;-77
2023/04/05 22:50:38;;;;;;;11.40;6.10;;;;;;;13.95;63.60;99336.14;105631;1256;59728;-76
2023/04/05 22:53:06;;;;;;;12.40;6.40;;;;;;;13.92;63.65;99338.95;105665;1257;66095;-77
2023/04/05 22:55:38;;;;;;;11.70;5.80;;;;;;;13.92;63.76;99340.38;105603;1259;59819;-76
2023/04/05 22:58:07;;;;;;;9.90;5.60;;;;;;;13.92;63.85;99341.08;105646;1257;66382;-79
2023/04/05 23:00:36;;;;;;;10.80;5.60;;;;;;;13.92;63.92;99335.60;105691;1266;59632;-79
2023/04/05 23:03:05;;;;;;;10.30;5.30;;;;;;;13.91;64.00;99334.08;105743;1260;59618;-78
2023/04/05 23:05:35;;;;;;;10.20;5.30;;;;;;;13.90;64.17;99337.86;105931;1256;64999;-77
2023/04/05 23:08:04;;;;;;;9.90;5.00;;;;;;;13.89;64.36;99337.81;105763;1260;59497;-79
2023/04/05 23:10:33;;;;;;;9.00;4.50;;;;;;;13.88;64.52;99335.48;105697;1259;65352;-79
2023/04/05 23:13:02;;;;;;;11.20;5.50;;;;;;;13.85;64.68;99332.81;105616;1254;60000;-79
2023/04/05 23:15:30;;;;;;;8.60;5.10;;;;;;;13.80;64.95;99337.96;105734;1259;59656;-79
2023/04/05 23:18:00;;;;;;;8.70;4.00;;;;;;;13.75;65.14;99335.21;105718;1256;65683;-79
2023/04/05 23:20:29;;;;;;;7.10;4.30;;;;;;;13.71;65.36;99336.38;105794;1253;60123;-78
2023/04/05 23:22:59;;;;;;;6.70;3.70;;;;;;;13.66;65.50;99338.04;105717;1254;65594;-80
2023/04/05 23:25:27;;;;;;;6.90;4.30;;;;;;;13.62;65.61;99336.65;105635;1259;59631;-78
2023/04/05 23:27:55;;;;;;;8.20;4.40;;;;;;;13.59;65.77;99329.55;105625;1259;60205;-76
2023/04/05 23:30:24;;;;;;;8.10;3.90;;;;;;;13.57;65.84;99326.66;105662;1258;65891;-79
2023/04/05 23:32:53;;;;;;;8.80;4.50;;;;;;;13.54;66.00;99322.96;105711;1257;59997;-79
2023/04/05 23:35:22;;;;;;;8.50;4.40;;;;;;;13.51;66.20;99322.89;105696;1258;65292;-78
2023/04/05 23:37:51;;;;;;;6.80;4.50;;;;;;;13.49;66.34;99318.10;105654;1256;60439;-80
2023/04/05 23:40:19;;;;;;;9.20;4.30;;;;;;;13.49;66.46;99318.83;105604;1253;60452;-78
2023/04/05 23:42:49;;;;;;;8.90;4.60;;;;;;;13.49;66.63;99319.16;105839;1266;66722;-76
2023/04/05 23:45:17;;;;;;;11.00;4.40;;;;;;;13.51;66.75;99319.91;105716;1255;60435;-76
2023/04/05 23:47:45;;;;;;;9.50;4.40;;;;;;;13.51;66.73;99318.29;105653;1266;65351;-76
2023/04/05 23:50:14;;;;;;;8.60;4.50;;;;;;;13.50;66.75;99318.59;105751;1260;60432;-75
2023/04/05 23:52:42;;;;;;;8.40;4.30;;;;;;;13.48;66.91;99318.08;105664;1259;60494;-75
2023/04/05 23:55:11;;;;;;;8.80;4.70;;;;;;;13.46;67.05;99315.27;105549;1262;66710;-76
2023/04/05 23:57:40;;;;;;;8.20;4.40;;;;;;;13.46;67.13;99309.92;105693;1259;60523;-77
